Ardmore, South Dakota
Current Conditions -  °F | °C
As of 12:53 PM on Friday 31 Oct 2014 (Local Time) from KCUT Reporting Station
Clear Clear  
Wind Chill: 35°   Ceiling: Unl
Heat Index: 41°   Visibility: 10mi
Dew Point: 28°   Wind: 10mph
Humidity: 60%   Direction: 180°S
Pressure: 30.19"   Gusts: 20mph
Location:  43.1994°N, 103.759°W
Report Text: KCUT 311853Z AUTO 18009G17KT 10SM CLR 05/M02 A3019 RMK AO2 SLP236 T00501022
Loading
Personal Weather Stations






























Interactive Weather Map
Tropical Storm Tracking
New forecast layout! Learn more

10-Day Weather Forecast

Advertisements
Track Severe Weather on mobile